Nomad — 9HA2354 — position and weather

sailwx.info

Track history (hours):
 
Tides and Currents Weather Stations Pressure Air Temp Water Temp Dewpoint Dewpoint Depression Visibility Wind Speed Wind Dir Waves Ship Positions

Nomad

Last reported at 2017-Apr-28 07:05 UTC. Time now 2017-Apr-28 13:58 UTC.
Position N 36°19' E 016°34'.

Length 70 m; draft 3 m.

Type: Other ship. MMSI: 248413000.

Date/timePositionNaut miles runAvg speedWind from/ knotsBaromVisibWave heightAir tempDewpointWater temp
2017-Apr-28 07:05N 36°19' E 016°34'412.0
2017-Apr-28 06:45N 36°20' E 016°29'8012.2
2017-Apr-28 00:12N 36°24' E 014°50'512.5
2017-Apr-27 23:50N 36°25' E 014°45'412.6
2017-Apr-27 23:30N 36°25' E 014°39'612.7
2017-Apr-27 23:00N 36°26' E 014°32'612.6
2017-Apr-27 22:30N 36°26' E 014°24'612.6
2017-Apr-27 22:00N 36°26' E 014°16'612.5
2017-Apr-27 21:29N 36°26' E 014°08'612.6
2017-Apr-27 21:00N 36°27' E 014°00'612.6
2017-Apr-27 20:30N 36°27' E 013°53'612.5
2017-Apr-27 20:00N 36°29' E 013°45'612.3
2017-Apr-27 19:30N 36°31' E 013°38'612.1
2017-Apr-27 19:00N 36°32' E 013°30'611.8
2017-Apr-27 18:30N 36°34' E 013°23'611.4
2017-Apr-27 18:00N 36°35' E 013°16'611.5
2017-Apr-27 17:30N 36°37' E 013°10'510.6
2017-Apr-27 17:00N 36°38' E 013°03'5 9.9
2017-Apr-27 16:30N 36°40' E 012°57'5 9.9
2017-Apr-27 16:00N 36°42' E 012°52'510.0
2017-Apr-27 15:30N 36°44' E 012°46'5 9.8
2017-Apr-27 15:00N 36°46' E 012°40'1110.0
2017-Apr-27 13:57N 36°49' E 012°28'5 9.9
2017-Apr-27 13:29N 36°50' E 012°22'7 9.8
2017-Apr-27 12:48N 36°51' E 012°14'1110.8
2017-Apr-27 11:46N 36°53' E 012°00'511.6
2017-Apr-27 11:18N 36°54' E 011°53'54512.0
2017-Apr-25 13:45N 36°39' E 000°33'312.2
2017-Apr-25 13:29N 36°39' E 000°29'712.7
2017-Apr-25 12:57N 36°38' E 000°21'712.9
2017-Apr-25 12:26N 36°37' E 000°13'613.0
2017-Apr-25 11:58N 36°36' E 000°05'7813.0
2017-Apr-25 05:57N 36°25' W 001°31'18111.4
2017-Apr-24 14:02N 36°06' W 005°14'612.1
2017-Apr-24 13:30N 36°07' W 005°22'2 3.0
2017-Apr-24 12:59N 36°08' W 005°22'0 0.0
2017-Apr-24 12:28N 36°08' W 005°22'0 0.0
2017-Apr-24 11:58N 36°08' W 005°22'0 0.0
2017-Apr-24 11:28N 36°08' W 005°22'0 0.0
2017-Apr-24 10:58N 36°08' W 005°22'0 0.0
2017-Apr-24 10:28N 36°08' W 005°22'0 0.9
2017-Apr-24 10:00N 36°09' W 005°22'0 0.2
2017-Apr-24 09:30N 36°09' W 005°22'0 0.0
2017-Apr-24 09:00N 36°09' W 005°22'0 0.0
2017-Apr-24 08:30N 36°09' W 005°22'0 0.0
2017-Apr-24 08:00N 36°09' W 005°22'0 0.0
2017-Apr-24 07:30N 36°09' W 005°22'0 0.0
2017-Apr-24 07:00N 36°09' W 005°22'0 0.0
2017-Apr-24 06:30N 36°09' W 005°22'0 0.0
2017-Apr-24 06:00N 36°09' W 005°22'0 0.0
2017-Apr-24 05:30N 36°09' W 005°22'0 0.0
2017-Apr-24 05:00N 36°09' W 005°22'0 0.0
2017-Apr-24 04:30N 36°09' W 005°22'0 0.0
2017-Apr-24 04:00N 36°09' W 005°22'0 0.0
2017-Apr-24 03:30N 36°09' W 005°22'0 0.0
2017-Apr-24 03:00N 36°09' W 005°22'0 0.0
2017-Apr-24 02:30N 36°09' W 005°22'0 0.0
2017-Apr-24 02:00N 36°09' W 005°22'0 0.0
2017-Apr-24 01:30N 36°09' W 005°22'0 0.0
2017-Apr-24 01:00N 36°09' W 005°22'0 0.0
2017-Apr-24 00:30N 36°09' W 005°22'0 0.0
2017-Apr-24 00:00N 36°09' W 005°22'0 0.0
2017-Apr-23 23:30N 36°09' W 005°22'0 0.0
2017-Apr-23 23:00N 36°09' W 005°22'0 0.0
2017-Apr-23 22:30N 36°09' W 005°22'1 1.0
2017-Apr-23 21:59N 36°08' W 005°22'0 0.0
2017-Apr-23 21:29N 36°08' W 005°22'0 0.0
2017-Apr-23 20:59N 36°08' W 005°22'0 0.0
2017-Apr-23 20:29N 36°08' W 005°22'0 0.0
2017-Apr-23 19:59N 36°08' W 005°22'0 0.0
2017-Apr-23 19:29N 36°08' W 005°22'0 0.0
2017-Apr-23 18:59N 36°08' W 005°22'0 0.0
2017-Apr-23 18:29N 36°08' W 005°22'0 0.0
2017-Apr-23 17:59N 36°08' W 005°22'0 0.0
2017-Apr-23 17:29N 36°08' W 005°22'0 0.0
2017-Apr-23 16:59N 36°08' W 005°22'0 0.0
2017-Apr-23 16:29N 36°08' W 005°22'0 0.0
2017-Apr-23 15:59N 36°08' W 005°22'0 0.0
2017-Apr-23 15:29N 36°08' W 005°22'0 0.0
2017-Apr-23 15:00N 36°08' W 005°22'2 1.9
2017-Apr-23 14:00N 36°07' W 005°23'3 6.5
2017-Apr-23 13:30N 36°04' W 005°20'2 4.9
2017-Apr-23 13:00N 36°02' W 005°18'5 9.4
2017-Apr-23 12:30N 35°59' W 005°23'57711.2
2017-Apr-21 09:14N 29°04' W 013°17'311.9
2017-Apr-21 08:59N 29°02' W 013°20'612.0
2017-Apr-21 08:30N 28°58' W 013°24'612.2
2017-Apr-21 08:00N 28°53' W 013°29'612.3
2017-Apr-21 07:29N 28°49' W 013°34'511.4
2017-Apr-21 07:00N 28°45' W 013°38'0 0.7
2017-Apr-21 06:31N 28°45' W 013°37'0 0.7
2017-Apr-21 06:00N 28°45' W 013°37'0 0.8
2017-Apr-21 05:30N 28°45' W 013°37'0 0.7
2017-Apr-21 05:00N 28°45' W 013°36'0 0.8
2017-Apr-21 04:30N 28°45' W 013°36'0 0.8
2017-Apr-21 04:00N 28°45' W 013°35'0 0.8
2017-Apr-21 03:30N 28°45' W 013°35'0 0.8
2017-Apr-21 03:00N 28°45' W 013°34'0 0.9
2017-Apr-21 02:30N 28°46' W 013°34'0 1.0
2017-Apr-21 02:00N 28°46' W 013°34'1 1.0
2017-Apr-21 01:31N 28°46' W 013°33'1 1.1
2017-Apr-21 00:59N 28°47' W 013°33'0 0.9
2017-Apr-21 00:30N 28°47' W 013°33'0 0.9
2017-Apr-20 23:59N 28°48' W 013°33'0 0.9
2017-Apr-20 23:30N 28°48' W 013°33'0 0.8
2017-Apr-20 22:58N 28°49' W 013°33'0 0.8
2017-Apr-20 22:30N 28°49' W 013°34'0 0.8
2017-Apr-20 22:00N 28°49' W 013°34'0 0.8
2017-Apr-20 21:30N 28°49' W 013°34'0 0.7
2017-Apr-20 21:00N 28°50' W 013°35'0 0.9
2017-Apr-20 20:30N 28°50' W 013°35'0 0.9
2017-Apr-20 20:00N 28°50' W 013°35'0 0.9
2017-Apr-20 19:30N 28°50' W 013°36'0 0.9
2017-Apr-20 19:00N 28°51' W 013°36'0 0.9
2017-Apr-20 18:31N 28°51' W 013°37'0 0.8
2017-Apr-20 18:00N 28°51' W 013°37'0 0.8
2017-Apr-20 17:31N 28°51' W 013°37'0 0.9
2017-Apr-20 17:01N 28°52' W 013°38'0 0.8
2017-Apr-20 16:31N 28°52' W 013°38'0 0.8
2017-Apr-20 16:01N 28°52' W 013°39'0 0.8
2017-Apr-20 15:30N 28°52' W 013°38'0 0.6
2017-Apr-20 15:00N 28°52' W 013°39'0 0.3
2017-Apr-20 14:00N 28°52' W 013°39'1 1.9
2017-Apr-20 13:31N 28°52' W 013°38'4 8.7
2017-Apr-20 13:00N 28°48' W 013°35'4 8.8
2017-Apr-20 12:30N 28°44' W 013°32'2 3.9
2017-Apr-20 12:00N 28°43' W 013°31'0 1.0
2017-Apr-20 11:30N 28°43' W 013°31'0 0.8
2017-Apr-20 10:59N 28°43' W 013°32'0 0.8
2017-Apr-20 10:30N 28°44' W 013°32'0 0.8
2017-Apr-20 10:00N 28°44' W 013°32'0 0.9
2017-Apr-20 09:30N 28°45' W 013°32'0 0.9
2017-Apr-20 09:00N 28°45' W 013°32'0 0.8
2017-Apr-20 08:30N 28°45' W 013°33'0 1.0
2017-Apr-20 08:00N 28°46' W 013°33'0 1.0
2017-Apr-20 07:30N 28°46' W 013°33'0 0.8
2017-Apr-20 07:00N 28°47' W 013°33'0 0.9
2017-Apr-20 06:30N 28°47' W 013°33'0 0.8
2017-Apr-20 06:00N 28°47' W 013°33'0 0.7
2017-Apr-20 05:30N 28°48' W 013°33'0 0.6
2017-Apr-20 04:59N 28°48' W 013°33'0 0.7
2017-Apr-20 04:30N 28°48' W 013°33'0 0.7
2017-Apr-20 04:00N 28°49' W 013°33'0 0.7
2017-Apr-20 03:30N 28°49' W 013°34'0 0.6
2017-Apr-20 03:00N 28°49' W 013°34'0 0.5
2017-Apr-20 02:30N 28°50' W 013°34'0 0.5
2017-Apr-20 02:00N 28°50' W 013°34'0 0.5
2017-Apr-20 01:30N 28°50' W 013°34'0 0.5
2017-Apr-20 00:59N 28°50' W 013°34'0 0.4
2017-Apr-20 00:30N 28°51' W 013°33'0 0.4
2017-Apr-20 00:00N 28°51' W 013°33'0 0.4
2017-Apr-19 23:31N 28°51' W 013°33'0 0.4
2017-Apr-19 23:01N 28°51' W 013°33'0 0.4
2017-Apr-19 22:30N 28°51' W 013°33'0 0.5
2017-Apr-19 22:00N 28°51' W 013°33'0 0.5
2017-Apr-19 21:31N 28°51' W 013°32'0 0.5
2017-Apr-19 21:00N 28°51' W 013°32'0 0.5
2017-Apr-19 20:30N 28°52' W 013°32'0 0.6
2017-Apr-19 20:00N 28°52' W 013°32'0 0.6
2017-Apr-19 19:31N 28°52' W 013°32'0 0.6
2017-Apr-19 19:00N 28°52' W 013°31'0 0.6
2017-Apr-19 18:30N 28°52' W 013°31'2 3.2
2017-Apr-19 17:59N 28°53' W 013°33'4 7.5
2017-Apr-19 17:31N 28°55' W 013°36'0 0.4
2017-Apr-19 17:00N 28°55' W 013°36'0 0.5
2017-Apr-19 16:30N 28°55' W 013°36'0 0.6
2017-Apr-19 16:01N 28°55' W 013°35'0 0.7
2017-Apr-19 15:31N 28°55' W 013°35'0 0.7
2017-Apr-19 15:00N 28°55' W 013°35'0 0.7
2017-Apr-19 14:30N 28°54' W 013°34'1 0.6
2017-Apr-19 13:30N 28°54' W 013°34'0 0.6
2017-Apr-19 13:00N 28°54' W 013°33'0 0.6
2017-Apr-19 12:30N 28°54' W 013°33'0 0.5
2017-Apr-19 12:00N 28°54' W 013°33'2 3.8
2017-Apr-19 11:30N 28°55' W 013°35'1 2.5
2017-Apr-19 11:00N 28°56' W 013°36'0 0.4
2017-Apr-19 10:30N 28°55' W 013°36'0 0.4
2017-Apr-19 10:00N 28°55' W 013°36'0 0.3
2017-Apr-19 09:30N 28°55' W 013°36'0 0.3
2017-Apr-19 09:01N 28°55' W 013°36'0 0.4
2017-Apr-19 08:30N 28°55' W 013°36'0 0.4
2017-Apr-19 08:00N 28°55' W 013°36'0 0.3
2017-Apr-19 07:30N 28°55' W 013°36'0 0.5
2017-Apr-19 07:01N 28°55' W 013°36'0 0.2
2017-Apr-19 06:30N 28°55' W 013°37'0 0.0
2017-Apr-19 06:00N 28°55' W 013°37'0 0.1
2017-Apr-19 05:31N 28°55' W 013°36'0 0.1
2017-Apr-19 05:01N 28°55' W 013°36'0 0.1
2017-Apr-19 04:30N 28°55' W 013°36'0 0.3
2017-Apr-19 04:00N 28°55' W 013°36'0 0.2
2017-Apr-19 03:30N 28°55' W 013°36'0 0.1
2017-Apr-19 03:00N 28°55' W 013°36'0 0.1
2017-Apr-19 02:30N 28°55' W 013°36'0 0.2
2017-Apr-19 02:00N 28°55' W 013°36'0 0.3
2017-Apr-19 01:30N 28°55' W 013°36'0 0.2
2017-Apr-19 01:00N 28°55' W 013°36'0 0.2
2017-Apr-19 00:30N 28°55' W 013°36'0 0.2
2017-Apr-19 00:01N 28°55' W 013°36'0 0.3
2017-Apr-18 23:31N 28°55' W 013°36'0 0.4
2017-Apr-18 23:00N 28°54' W 013°36'0 0.2
2017-Apr-18 22:30N 28°54' W 013°36'0 0.3
2017-Apr-18 22:01N 28°55' W 013°36'1 0.6
2017-Apr-18 20:53N 28°55' W 013°36'0 0.0
2017-Apr-18 20:30N 28°55' W 013°36'0 0.0
2017-Apr-18 20:00N 28°55' W 013°36'0 0.0
2017-Apr-18 19:30N 28°55' W 013°36'0 0.0
2017-Apr-18 19:00N 28°55' W 013°36'0 0.0
2017-Apr-18 18:30N 28°55' W 013°36'0 0.0
2017-Apr-18 18:01N 28°55' W 013°36'0 0.1
2017-Apr-18 17:30N 28°55' W 013°36'1 1.7
2017-Apr-18 17:00N 28°54' W 013°37'611.8
2017-Apr-18 16:30N 28°51' W 013°42'611.5
2017-Apr-18 16:01N 28°49' W 013°48'611.8
2017-Apr-18 15:29N 28°49' W 013°55'711.8
2017-Apr-18 14:51N 28°48' W 014°04'411.5
2017-Apr-18 14:30N 28°48' W 014°08'1111.2
2017-Apr-18 13:30N 28°47' W 014°21'1811.3
2017-Apr-18 11:53N 28°46' W 014°42'511.1
2017-Apr-18 11:28N 28°45' W 014°47'811.1
2017-Apr-18 10:46N 28°45' W 014°56'511.0
2017-Apr-18 10:17N 28°44' W 015°02'311.0
2017-Apr-18 10:01N 28°44' W 015°06'510.8
2017-Apr-18 09:31N 28°43' W 015°12'510.8
2017-Apr-18 09:01N 28°42' W 015°18'510.7
2017-Apr-18 08:30N 28°42' W 015°24'510.8
2017-Apr-18 08:01N 28°42' W 015°30'510.8
2017-Apr-18 07:31N 28°42' W 015°36'  
Track history (hours):
 
Tides and Currents Weather Stations Pressure Air Temp Water Temp Dewpoint Dewpoint Depression Visibility Wind Speed Wind Dir Waves Ship Positions

Nomad

Last reported at 2017-Apr-28 07:05 UTC. Time now 2017-Apr-28 13:58 UTC.
Position N 36°19' E 016°34'.

Length 70 m; draft 3 m.

Type: Other ship. MMSI: 248413000.

Date/timePositionNaut miles runAvg speedWind from/ knotsBaromVisibWave heightAir tempDewpointWater temp
2017-Apr-28 07:05N 36°19' E 016°34'412.0
2017-Apr-28 06:45N 36°20' E 016°29'8012.2
2017-Apr-28 00:12N 36°24' E 014°50'512.5
2017-Apr-27 23:50N 36°25' E 014°45'412.6
2017-Apr-27 23:30N 36°25' E 014°39'612.7
2017-Apr-27 23:00N 36°26' E 014°32'612.6
2017-Apr-27 22:30N 36°26' E 014°24'612.6
2017-Apr-27 22:00N 36°26' E 014°16'612.5
2017-Apr-27 21:29N 36°26' E 014°08'612.6
2017-Apr-27 21:00N 36°27' E 014°00'612.6
2017-Apr-27 20:30N 36°27' E 013°53'612.5
2017-Apr-27 20:00N 36°29' E 013°45'612.3
2017-Apr-27 19:30N 36°31' E 013°38'612.1
2017-Apr-27 19:00N 36°32' E 013°30'611.8
2017-Apr-27 18:30N 36°34' E 013°23'611.4
2017-Apr-27 18:00N 36°35' E 013°16'611.5
2017-Apr-27 17:30N 36°37' E 013°10'510.6
2017-Apr-27 17:00N 36°38' E 013°03'5 9.9
2017-Apr-27 16:30N 36°40' E 012°57'5 9.9
2017-Apr-27 16:00N 36°42' E 012°52'510.0
2017-Apr-27 15:30N 36°44' E 012°46'5 9.8
2017-Apr-27 15:00N 36°46' E 012°40'1110.0
2017-Apr-27 13:57N 36°49' E 012°28'5 9.9
2017-Apr-27 13:29N 36°50' E 012°22'7 9.8
2017-Apr-27 12:48N 36°51' E 012°14'1110.8
2017-Apr-27 11:46N 36°53' E 012°00'511.6
2017-Apr-27 11:18N 36°54' E 011°53'54512.0
2017-Apr-25 13:45N 36°39' E 000°33'312.2
2017-Apr-25 13:29N 36°39' E 000°29'712.7
2017-Apr-25 12:57N 36°38' E 000°21'712.9
2017-Apr-25 12:26N 36°37' E 000°13'613.0
2017-Apr-25 11:58N 36°36' E 000°05'7813.0
2017-Apr-25 05:57N 36°25' W 001°31'18111.4
2017-Apr-24 14:02N 36°06' W 005°14'612.1
2017-Apr-24 13:30N 36°07' W 005°22'2 3.0
2017-Apr-24 12:59N 36°08' W 005°22'0 0.0
2017-Apr-24 12:28N 36°08' W 005°22'0 0.0
2017-Apr-24 11:58N 36°08' W 005°22'0 0.0
2017-Apr-24 11:28N 36°08' W 005°22'0 0.0
2017-Apr-24 10:58N 36°08' W 005°22'0 0.0
2017-Apr-24 10:28N 36°08' W 005°22'0 0.9
2017-Apr-24 10:00N 36°09' W 005°22'0 0.2
2017-Apr-24 09:30N 36°09' W 005°22'0 0.0
2017-Apr-24 09:00N 36°09' W 005°22'0 0.0
2017-Apr-24 08:30N 36°09' W 005°22'0 0.0
2017-Apr-24 08:00N 36°09' W 005°22'0 0.0
2017-Apr-24 07:30N 36°09' W 005°22'0 0.0
2017-Apr-24 07:00N 36°09' W 005°22'0 0.0
2017-Apr-24 06:30N 36°09' W 005°22'0 0.0
2017-Apr-24 06:00N 36°09' W 005°22'0 0.0
2017-Apr-24 05:30N 36°09' W 005°22'0 0.0
2017-Apr-24 05:00N 36°09' W 005°22'0 0.0
2017-Apr-24 04:30N 36°09' W 005°22'0 0.0
2017-Apr-24 04:00N 36°09' W 005°22'0 0.0
2017-Apr-24 03:30N 36°09' W 005°22'0 0.0
2017-Apr-24 03:00N 36°09' W 005°22'0 0.0
2017-Apr-24 02:30N 36°09' W 005°22'0 0.0
2017-Apr-24 02:00N 36°09' W 005°22'0 0.0
2017-Apr-24 01:30N 36°09' W 005°22'0 0.0
2017-Apr-24 01:00N 36°09' W 005°22'0 0.0
2017-Apr-24 00:30N 36°09' W 005°22'0 0.0
2017-Apr-24 00:00N 36°09' W 005°22'0 0.0
2017-Apr-23 23:30N 36°09' W 005°22'0 0.0
2017-Apr-23 23:00N 36°09' W 005°22'0 0.0
2017-Apr-23 22:30N 36°09' W 005°22'1 1.0
2017-Apr-23 21:59N 36°08' W 005°22'0 0.0
2017-Apr-23 21:29N 36°08' W 005°22'0 0.0
2017-Apr-23 20:59N 36°08' W 005°22'0 0.0
2017-Apr-23 20:29N 36°08' W 005°22'0 0.0
2017-Apr-23 19:59N 36°08' W 005°22'0 0.0
2017-Apr-23 19:29N 36°08' W 005°22'0 0.0
2017-Apr-23 18:59N 36°08' W 005°22'0 0.0
2017-Apr-23 18:29N 36°08' W 005°22'0 0.0
2017-Apr-23 17:59N 36°08' W 005°22'0 0.0
2017-Apr-23 17:29N 36°08' W 005°22'0 0.0
2017-Apr-23 16:59N 36°08' W 005°22'0 0.0
2017-Apr-23 16:29N 36°08' W 005°22'0 0.0
2017-Apr-23 15:59N 36°08' W 005°22'0 0.0
2017-Apr-23 15:29N 36°08' W 005°22'0 0.0
2017-Apr-23 15:00N 36°08' W 005°22'2 1.9
2017-Apr-23 14:00N 36°07' W 005°23'3 6.5
2017-Apr-23 13:30N 36°04' W 005°20'2 4.9
2017-Apr-23 13:00N 36°02' W 005°18'5 9.4
2017-Apr-23 12:30N 35°59' W 005°23'57711.2
2017-Apr-21 09:14N 29°04' W 013°17'311.9
2017-Apr-21 08:59N 29°02' W 013°20'612.0
2017-Apr-21 08:30N 28°58' W 013°24'612.2
2017-Apr-21 08:00N 28°53' W 013°29'612.3
2017-Apr-21 07:29N 28°49' W 013°34'511.4
2017-Apr-21 07:00N 28°45' W 013°38'0 0.7
2017-Apr-21 06:31N 28°45' W 013°37'0 0.7
2017-Apr-21 06:00N 28°45' W 013°37'0 0.8
2017-Apr-21 05:30N 28°45' W 013°37'0 0.7
2017-Apr-21 05:00N 28°45' W 013°36'0 0.8
2017-Apr-21 04:30N 28°45' W 013°36'0 0.8
2017-Apr-21 04:00N 28°45' W 013°35'0 0.8
2017-Apr-21 03:30N 28°45' W 013°35'0 0.8
2017-Apr-21 03:00N 28°45' W 013°34'0 0.9
2017-Apr-21 02:30N 28°46' W 013°34'0 1.0
2017-Apr-21 02:00N 28°46' W 013°34'1 1.0
2017-Apr-21 01:31N 28°46' W 013°33'1 1.1
2017-Apr-21 00:59N 28°47' W 013°33'0 0.9
2017-Apr-21 00:30N 28°47' W 013°33'0 0.9
2017-Apr-20 23:59N 28°48' W 013°33'0 0.9
2017-Apr-20 23:30N 28°48' W 013°33'0 0.8
2017-Apr-20 22:58N 28°49' W 013°33'0 0.8
2017-Apr-20 22:30N 28°49' W 013°34'0 0.8
2017-Apr-20 22:00N 28°49' W 013°34'0 0.8
2017-Apr-20 21:30N 28°49' W 013°34'0 0.7
2017-Apr-20 21:00N 28°50' W 013°35'0 0.9
2017-Apr-20 20:30N 28°50' W 013°35'0 0.9
2017-Apr-20 20:00N 28°50' W 013°35'0 0.9
2017-Apr-20 19:30N 28°50' W 013°36'0 0.9
2017-Apr-20 19:00N 28°51' W 013°36'0 0.9
2017-Apr-20 18:31N 28°51' W 013°37'0 0.8
2017-Apr-20 18:00N 28°51' W 013°37'0 0.8
2017-Apr-20 17:31N 28°51' W 013°37'0 0.9
2017-Apr-20 17:01N 28°52' W 013°38'0 0.8
2017-Apr-20 16:31N 28°52' W 013°38'0 0.8
2017-Apr-20 16:01N 28°52' W 013°39'0 0.8
2017-Apr-20 15:30N 28°52' W 013°38'0 0.6
2017-Apr-20 15:00N 28°52' W 013°39'0 0.3
2017-Apr-20 14:00N 28°52' W 013°39'1 1.9
2017-Apr-20 13:31N 28°52' W 013°38'4 8.7
2017-Apr-20 13:00N 28°48' W 013°35'4 8.8
2017-Apr-20 12:30N 28°44' W 013°32'2 3.9
2017-Apr-20 12:00N 28°43' W 013°31'0 1.0
2017-Apr-20 11:30N 28°43' W 013°31'0 0.8
2017-Apr-20 10:59N 28°43' W 013°32'0 0.8
2017-Apr-20 10:30N 28°44' W 013°32'0 0.8
2017-Apr-20 10:00N 28°44' W 013°32'0 0.9
2017-Apr-20 09:30N 28°45' W 013°32'0 0.9
2017-Apr-20 09:00N 28°45' W 013°32'0 0.8
2017-Apr-20 08:30N 28°45' W 013°33'0 1.0
2017-Apr-20 08:00N 28°46' W 013°33'0 1.0
2017-Apr-20 07:30N 28°46' W 013°33'0 0.8
2017-Apr-20 07:00N 28°47' W 013°33'0 0.9
2017-Apr-20 06:30N 28°47' W 013°33'0 0.8
2017-Apr-20 06:00N 28°47' W 013°33'0 0.7
2017-Apr-20 05:30N 28°48' W 013°33'0 0.6
2017-Apr-20 04:59N 28°48' W 013°33'0 0.7
2017-Apr-20 04:30N 28°48' W 013°33'0 0.7
2017-Apr-20 04:00N 28°49' W 013°33'0 0.7
2017-Apr-20 03:30N 28°49' W 013°34'0 0.6
2017-Apr-20 03:00N 28°49' W 013°34'0 0.5
2017-Apr-20 02:30N 28°50' W 013°34'0 0.5
2017-Apr-20 02:00N 28°50' W 013°34'0 0.5
2017-Apr-20 01:30N 28°50' W 013°34'0 0.5
2017-Apr-20 00:59N 28°50' W 013°34'0 0.4
2017-Apr-20 00:30N 28°51' W 013°33'0 0.4
2017-Apr-20 00:00N 28°51' W 013°33'0 0.4
2017-Apr-19 23:31N 28°51' W 013°33'0 0.4
2017-Apr-19 23:01N 28°51' W 013°33'0 0.4
2017-Apr-19 22:30N 28°51' W 013°33'0 0.5
2017-Apr-19 22:00N 28°51' W 013°33'0 0.5
2017-Apr-19 21:31N 28°51' W 013°32'0 0.5
2017-Apr-19 21:00N 28°51' W 013°32'0 0.5
2017-Apr-19 20:30N 28°52' W 013°32'0 0.6
2017-Apr-19 20:00N 28°52' W 013°32'0 0.6
2017-Apr-19 19:31N 28°52' W 013°32'0 0.6
2017-Apr-19 19:00N 28°52' W 013°31'0 0.6
2017-Apr-19 18:30N 28°52' W 013°31'2 3.2
2017-Apr-19 17:59N 28°53' W 013°33'4 7.5
2017-Apr-19 17:31N 28°55' W 013°36'0 0.4
2017-Apr-19 17:00N 28°55' W 013°36'0 0.5
2017-Apr-19 16:30N 28°55' W 013°36'0 0.6
2017-Apr-19 16:01N 28°55' W 013°35'0 0.7
2017-Apr-19 15:31N 28°55' W 013°35'0 0.7
2017-Apr-19 15:00N 28°55' W 013°35'0 0.7
2017-Apr-19 14:30N 28°54' W 013°34'1 0.6
2017-Apr-19 13:30N 28°54' W 013°34'0 0.6
2017-Apr-19 13:00N 28°54' W 013°33'0 0.6
2017-Apr-19 12:30N 28°54' W 013°33'0 0.5
2017-Apr-19 12:00N 28°54' W 013°33'2 3.8
2017-Apr-19 11:30N 28°55' W 013°35'1 2.5
2017-Apr-19 11:00N 28°56' W 013°36'0 0.4
2017-Apr-19 10:30N 28°55' W 013°36'0 0.4
2017-Apr-19 10:00N 28°55' W 013°36'0 0.3
2017-Apr-19 09:30N 28°55' W 013°36'0 0.3
2017-Apr-19 09:01N 28°55' W 013°36'0 0.4
2017-Apr-19 08:30N 28°55' W 013°36'0 0.4
2017-Apr-19 08:00N 28°55' W 013°36'0 0.3
2017-Apr-19 07:30N 28°55' W 013°36'0 0.5
2017-Apr-19 07:01N 28°55' W 013°36'0 0.2
2017-Apr-19 06:30N 28°55' W 013°37'0 0.0
2017-Apr-19 06:00N 28°55' W 013°37'0 0.1
2017-Apr-19 05:31N 28°55' W 013°36'0 0.1
2017-Apr-19 05:01N 28°55' W 013°36'0 0.1
2017-Apr-19 04:30N 28°55' W 013°36'0 0.3
2017-Apr-19 04:00N 28°55' W 013°36'0 0.2
2017-Apr-19 03:30N 28°55' W 013°36'0 0.1
2017-Apr-19 03:00N 28°55' W 013°36'0 0.1
2017-Apr-19 02:30N 28°55' W 013°36'0 0.2
2017-Apr-19 02:00N 28°55' W 013°36'0 0.3
2017-Apr-19 01:30N 28°55' W 013°36'0 0.2
2017-Apr-19 01:00N 28°55' W 013°36'0 0.2
2017-Apr-19 00:30N 28°55' W 013°36'0 0.2
2017-Apr-19 00:01N 28°55' W 013°36'0 0.3
2017-Apr-18 23:31N 28°55' W 013°36'0 0.4
2017-Apr-18 23:00N 28°54' W 013°36'0 0.2
2017-Apr-18 22:30N 28°54' W 013°36'0 0.3
2017-Apr-18 22:01N 28°55' W 013°36'1 0.6
2017-Apr-18 20:53N 28°55' W 013°36'0 0.0
2017-Apr-18 20:30N 28°55' W 013°36'0 0.0
2017-Apr-18 20:00N 28°55' W 013°36'0 0.0
2017-Apr-18 19:30N 28°55' W 013°36'0 0.0
2017-Apr-18 19:00N 28°55' W 013°36'0 0.0
2017-Apr-18 18:30N 28°55' W 013°36'0 0.0
2017-Apr-18 18:01N 28°55' W 013°36'0 0.1
2017-Apr-18 17:30N 28°55' W 013°36'1 1.7
2017-Apr-18 17:00N 28°54' W 013°37'611.8
2017-Apr-18 16:30N 28°51' W 013°42'611.5
2017-Apr-18 16:01N 28°49' W 013°48'611.8
2017-Apr-18 15:29N 28°49' W 013°55'711.8
2017-Apr-18 14:51N 28°48' W 014°04'411.5
2017-Apr-18 14:30N 28°48' W 014°08'1111.2
2017-Apr-18 13:30N 28°47' W 014°21'1811.3
2017-Apr-18 11:53N 28°46' W 014°42'511.1
2017-Apr-18 11:28N 28°45' W 014°47'811.1
2017-Apr-18 10:46N 28°45' W 014°56'511.0
2017-Apr-18 10:17N 28°44' W 015°02'311.0
2017-Apr-18 10:01N 28°44' W 015°06'510.8
2017-Apr-18 09:31N 28°43' W 015°12'510.8
2017-Apr-18 09:01N 28°42' W 015°18'510.7
2017-Apr-18 08:30N 28°42' W 015°24'510.8
2017-Apr-18 08:01N 28°42' W 015°30'510.8
2017-Apr-18 07:31N 28°42' W 015°36'  

Dump ship's entire track history